sensor_id;sensor_type;location;lat;lon;timestamp;pressure;altitude;pressure_sealevel;temperature;humidity
16100;BME280;8154;50.830;12.082;2022-07-10T00:00:37;100062.13;;;23.70;39.40
16100;BME280;8154;50.830;12.082;2022-07-10T00:03:22;100065.00;;;23.68;38.95
16100;BME280;8154;50.830;12.082;2022-07-10T00:06:07;100069.13;;;23.71;39.01
16100;BME280;8154;50.830;12.082;2022-07-10T00:08:51;100063.97;;;23.69;38.99
16100;BME280;8154;50.830;12.082;2022-07-10T00:11:34;100062.75;;;23.72;38.91
16100;BME280;8154;50.830;12.082;2022-07-10T00:14:19;100063.97;;;23.69;38.80
16100;BME280;8154;50.830;12.082;2022-07-10T00:17:04;100064.63;;;23.71;38.86
16100;BME280;8154;50.830;12.082;2022-07-10T00:19:48;100062.13;;;23.70;38.47
16100;BME280;8154;50.830;12.082;2022-07-10T00:22:33;100066.81;;;23.68;38.67
16100;BME280;8154;50.830;12.082;2022-07-10T00:25:19;100065.63;;;23.70;38.72
16100;BME280;8154;50.830;12.082;2022-07-10T00:28:03;100070.94;;;23.70;38.70
16100;BME280;8154;50.830;12.082;2022-07-10T00:30:48;100068.09;;;23.72;38.39
16100;BME280;8154;50.830;12.082;2022-07-10T00:33:32;100074.94;;;23.74;38.27
16100;BME280;8154;50.830;12.082;2022-07-10T00:36:17;100074.09;;;23.74;38.44
16100;BME280;8154;50.830;12.082;2022-07-10T00:39:01;100064.44;;;23.73;38.31
16100;BME280;8154;50.830;12.082;2022-07-10T00:41:45;100063.13;;;23.69;38.52
16100;BME280;8154;50.830;12.082;2022-07-10T00:44:29;100059.28;;;23.71;37.96
16100;BME280;8154;50.830;12.082;2022-07-10T00:47:14;100061.47;;;23.68;38.09
16100;BME280;8154;50.830;12.082;2022-07-10T00:50:01;100064.16;;;23.68;38.21
16100;BME280;8154;50.830;12.082;2022-07-10T00:52:46;100062.50;;;23.67;38.12
16100;BME280;8154;50.830;12.082;2022-07-10T00:55:30;100065.50;;;23.64;38.24
16100;BME280;8154;50.830;12.082;2022-07-10T00:58:16;100055.31;;;23.67;38.27
16100;BME280;8154;50.830;12.082;2022-07-10T01:01:02;100056.31;;;23.66;38.25
16100;BME280;8154;50.830;12.082;2022-07-10T01:03:47;100056.97;;;23.68;38.06
16100;BME280;8154;50.830;12.082;2022-07-10T01:06:31;100055.13;;;23.69;37.90
16100;BME280;8154;50.830;12.082;2022-07-10T01:09:17;100057.59;;;23.70;37.79
16100;BME280;8154;50.830;12.082;2022-07-10T01:12:01;100047.94;;;23.69;38.02
16100;BME280;8154;50.830;12.082;2022-07-10T01:14:46;100057.78;;;23.69;37.72
16100;BME280;8154;50.830;12.082;2022-07-10T01:17:31;100049.50;;;23.64;37.82
16100;BME280;8154;50.830;12.082;2022-07-10T01:20:16;100054.03;;;23.63;37.94
16100;BME280;8154;50.830;12.082;2022-07-10T01:23:01;100047.66;;;23.64;37.81
16100;BME280;8154;50.830;12.082;2022-07-10T01:25:46;100046.63;;;23.65;37.49
16100;BME280;8154;50.830;12.082;2022-07-10T01:28:31;100041.50;;;23.64;37.59
16100;BME280;8154;50.830;12.082;2022-07-10T01:31:17;100032.19;;;23.60;37.56
16100;BME280;8154;50.830;12.082;2022-07-10T01:34:05;100032.50;;;23.65;37.44
16100;BME280;8154;50.830;12.082;2022-07-10T01:36:49;100048.31;;;23.66;37.34
16100;BME280;8154;50.830;12.082;2022-07-10T01:39:33;100057.31;;;23.65;37.24
16100;BME280;8154;50.830;12.082;2022-07-10T01:42:17;100041.31;;;23.65;36.98
16100;BME280;8154;50.830;12.082;2022-07-10T01:45:01;100042.31;;;23.64;36.90
16100;BME280;8154;50.830;12.082;2022-07-10T01:47:46;100042.69;;;23.61;36.98
16100;BME280;8154;50.830;12.082;2022-07-10T01:50:30;100037.44;;;23.53;37.14
16100;BME280;8154;50.830;12.082;2022-07-10T01:53:15;100040.56;;;23.57;36.46
16100;BME280;8154;50.830;12.082;2022-07-10T01:56:05;100036.44;;;23.54;36.72
16100;BME280;8154;50.830;12.082;2022-07-10T01:58:49;100035.06;;;23.58;36.38
16100;BME280;8154;50.830;12.082;2022-07-10T02:01:33;100037.72;;;23.58;35.86
16100;BME280;8154;50.830;12.082;2022-07-10T02:04:18;100039.56;;;23.58;36.09
16100;BME280;8154;50.830;12.082;2022-07-10T02:07:20;100026.38;;;23.56;36.66
16100;BME280;8154;50.830;12.082;2022-07-10T02:10:06;100025.28;;;23.51;36.39
16100;BME280;8154;50.830;12.082;2022-07-10T02:12:50;100024.63;;;23.49;36.47
16100;BME280;8154;50.830;12.082;2022-07-10T02:15:35;100006.44;;;23.52;36.24
16100;BME280;8154;50.830;12.082;2022-07-10T02:18:19;100008.91;;;23.54;36.35
16100;BME280;8154;50.830;12.082;2022-07-10T02:21:04;100009.75;;;23.54;36.09
16100;BME280;8154;50.830;12.082;2022-07-10T02:23:48;99997.88;;;23.57;36.17
16100;BME280;8154;50.830;12.082;2022-07-10T02:26:32;99994.84;;;23.60;35.68
16100;BME280;8154;50.830;12.082;2022-07-10T02:29:16;100004.50;;;23.61;35.69
16100;BME280;8154;50.830;12.082;2022-07-10T02:32:00;99990.34;;;23.60;35.71
16100;BME280;8154;50.830;12.082;2022-07-10T02:34:44;99994.00;;;23.59;35.89
16100;BME280;8154;50.830;12.082;2022-07-10T02:37:28;99997.69;;;23.58;35.66
16100;BME280;8154;50.830;12.082;2022-07-10T02:40:13;99996.06;;;23.57;35.70
16100;BME280;8154;50.830;12.082;2022-07-10T02:42:57;99994.38;;;23.56;35.53
16100;BME280;8154;50.830;12.082;2022-07-10T02:45:41;99995.22;;;23.57;35.60
16100;BME280;8154;50.830;12.082;2022-07-10T02:48:25;99995.22;;;23.57;35.66
16100;BME280;8154;50.830;12.082;2022-07-10T02:51:10;99988.13;;;23.49;35.81
16100;BME280;8154;50.830;12.082;2022-07-10T02:53:54;99991.16;;;23.46;36.19
16100;BME280;8154;50.830;12.082;2022-07-10T02:56:37;99990.41;;;23.38;36.07
16100;BME280;8154;50.830;12.082;2022-07-10T02:59:22;99988.03;;;23.43;35.98
16100;BME280;8154;50.830;12.082;2022-07-10T03:02:06;99987.38;;;23.41;36.00
16100;BME280;8154;50.830;12.082;2022-07-10T03:04:51;99990.69;;;23.43;35.83
16100;BME280;8154;50.830;12.082;2022-07-10T03:07:35;99984.06;;;23.39;35.91
16100;BME280;8154;50.830;12.082;2022-07-10T03:10:20;99980.94;;;23.35;36.15
16100;BME280;8154;50.830;12.082;2022-07-10T03:13:04;99978.38;;;23.42;36.01
16100;BME280;8154;50.830;12.082;2022-07-10T03:15:48;99981.47;;;23.45;35.86
16100;BME280;8154;50.830;12.082;2022-07-10T03:18:32;99977.44;;;23.49;35.75
16100;BME280;8154;50.830;12.082;2022-07-10T03:21:16;99974.78;;;23.49;35.65
16100;BME280;8154;50.830;12.082;2022-07-10T03:24:00;99976.63;;;23.49;35.91
16100;BME280;8154;50.830;12.082;2022-07-10T03:26:45;99982.97;;;23.48;35.74
16100;BME280;8154;50.830;12.082;2022-07-10T03:29:29;99982.97;;;23.48;35.87
16100;BME280;8154;50.830;12.082;2022-07-10T03:32:13;99966.31;;;23.46;36.04
16100;BME280;8154;50.830;12.082;2022-07-10T03:34:57;99967.16;;;23.46;35.72
16100;BME280;8154;50.830;12.082;2022-07-10T03:37:41;99965.66;;;23.44;35.80
16100;BME280;8154;50.830;12.082;2022-07-10T03:40:27;99960.78;;;23.47;35.30
16100;BME280;8154;50.830;12.082;2022-07-10T03:43:11;99964.78;;;23.51;35.45
16100;BME280;8154;50.830;12.082;2022-07-10T03:45:57;99963.47;;;23.47;35.23
16100;BME280;8154;50.830;12.082;2022-07-10T03:48:41;99963.75;;;23.52;35.41
16100;BME280;8154;50.830;12.082;2022-07-10T03:51:25;99964.78;;;23.51;35.42
16100;BME280;8154;50.830;12.082;2022-07-10T03:54:09;99962.91;;;23.52;35.14
16100;BME280;8154;50.830;12.082;2022-07-10T03:56:53;99958.13;;;23.47;35.47
16100;BME280;8154;50.830;12.082;2022-07-10T03:59:57;99958.13;;;23.47;35.27
16100;BME280;8154;50.830;12.082;2022-07-10T04:02:41;99956.84;;;23.43;35.42
16100;BME280;8154;50.830;12.082;2022-07-10T04:05:26;99966.13;;;23.47;35.43
16100;BME280;8154;50.830;12.082;2022-07-10T04:08:11;99964.47;;;23.46;35.44
16100;BME280;8154;50.830;12.082;2022-07-10T04:10:55;99962.81;;;23.45;35.42
16100;BME280;8154;50.830;12.082;2022-07-10T04:13:39;99962.38;;;23.42;35.48
16100;BME280;8154;50.830;12.082;2022-07-10T04:16:23;99967.88;;;23.40;35.53
16100;BME280;8154;50.830;12.082;2022-07-10T04:19:07;99963.00;;;23.44;35.22
16100;BME280;8154;50.830;12.082;2022-07-10T04:21:51;99958.84;;;23.41;35.26
16100;BME280;8154;50.830;12.082;2022-07-10T04:24:36;99977.72;;;23.40;35.63
16100;BME280;8154;50.830;12.082;2022-07-10T04:27:20;99974.75;;;23.35;35.71
16100;BME280;8154;50.830;12.082;2022-07-10T04:30:05;99970.44;;;23.34;35.92
16100;BME280;8154;50.830;12.082;2022-07-10T04:32:50;99967.78;;;23.34;35.87
16100;BME280;8154;50.830;12.082;2022-07-10T04:35:34;99966.50;;;23.30;35.99
16100;BME280;8154;50.830;12.082;2022-07-10T04:38:18;99971.19;;;23.28;36.05
16100;BME280;8154;50.830;12.082;2022-07-10T04:41:02;99971.84;;;23.30;36.02
16100;BME280;8154;50.830;12.082;2022-07-10T04:43:47;99964.81;;;23.29;35.89
16100;BME280;8154;50.830;12.082;2022-07-10T04:46:31;99966.66;;;23.28;36.10
16100;BME280;8154;50.830;12.082;2022-07-10T04:49:15;99967.66;;;23.27;36.06
16100;BME280;8154;50.830;12.082;2022-07-10T04:51:59;99979.97;;;23.28;36.00
16100;BME280;8154;50.830;12.082;2022-07-10T04:54:43;99972.16;;;23.27;36.15
16100;BME280;8154;50.830;12.082;2022-07-10T04:57:28;99972.16;;;23.27;36.15
16100;BME280;8154;50.830;12.082;2022-07-10T05:00:12;99972.09;;;23.35;36.00
16100;BME280;8154;50.830;12.082;2022-07-10T05:02:57;99977.44;;;23.35;36.10
16100;BME280;8154;50.830;12.082;2022-07-10T05:05:41;99980.47;;;23.32;36.27
16100;BME280;8154;50.830;12.082;2022-07-10T05:08:25;99970.84;;;23.23;36.27
16100;BME280;8154;50.830;12.082;2022-07-10T05:11:09;99978.19;;;23.21;36.42
16100;BME280;8154;50.830;12.082;2022-07-10T05:13:55;99980.06;;;23.20;36.27
16100;BME280;8154;50.830;12.082;2022-07-10T05:16:39;99980.25;;;23.19;36.48
16100;BME280;8154;50.830;12.082;2022-07-10T05:19:23;99971.22;;;23.20;36.58
16100;BME280;8154;50.830;12.082;2022-07-10T05:22:07;99979.97;;;23.28;36.29
16100;BME280;8154;50.830;12.082;2022-07-10T05:24:53;99979.97;;;23.28;36.28
16100;BME280;8154;50.830;12.082;2022-07-10T05:27:37;99977.69;;;23.25;36.19
16100;BME280;8154;50.830;12.082;2022-07-10T05:30:21;99986.53;;;23.26;36.19
16100;BME280;8154;50.830;12.082;2022-07-10T05:33:05;99977.22;;;23.22;36.12
16100;BME280;8154;50.830;12.082;2022-07-10T05:35:49;99985.22;;;23.22;36.31
16100;BME280;8154;50.830;12.082;2022-07-10T05:38:34;99981.69;;;23.21;36.10
16100;BME280;8154;50.830;12.082;2022-07-10T05:41:18;99989.22;;;23.18;36.45
16100;BME280;8154;50.830;12.082;2022-07-10T05:44:03;99987.75;;;23.15;36.24
16100;BME280;8154;50.830;12.082;2022-07-10T05:46:47;99985.94;;;23.16;36.45
16100;BME280;8154;50.830;12.082;2022-07-10T05:49:31;99987.59;;;23.17;36.16
16100;BME280;8154;50.830;12.082;2022-07-10T05:52:16;99990.06;;;23.18;36.26
16100;BME280;8154;50.830;12.082;2022-07-10T05:55:00;100000.72;;;23.18;36.40
16100;BME280;8154;50.830;12.082;2022-07-10T05:57:45;99996.41;;;23.17;36.06
16100;BME280;8154;50.830;12.082;2022-07-10T06:00:29;99985.56;;;23.19;36.00
16100;BME280;8154;50.830;12.082;2022-07-10T06:03:13;99999.72;;;23.19;35.97
16100;BME280;8154;50.830;12.082;2022-07-10T06:05:58;99994.75;;;23.16;36.49
16100;BME280;8154;50.830;12.082;2022-07-10T06:08:44;99991.81;;;23.11;36.16
16100;BME280;8154;50.830;12.082;2022-07-10T06:11:28;99991.97;;;23.10;36.19
16100;BME280;8154;50.830;12.082;2022-07-10T06:14:13;99990.31;;;23.09;36.28
16100;BME280;8154;50.830;12.082;2022-07-10T06:16:57;99995.47;;;23.10;36.36
16100;BME280;8154;50.830;12.082;2022-07-10T06:19:42;99987.28;;;23.12;36.45
16100;BME280;8154;50.830;12.082;2022-07-10T06:22:26;99998.59;;;23.14;36.21
16100;BME280;8154;50.830;12.082;2022-07-10T06:25:16;99994.91;;;23.15;36.23
16100;BME280;8154;50.830;12.082;2022-07-10T06:28:00;99997.28;;;23.10;36.11
16100;BME280;8154;50.830;12.082;2022-07-10T06:30:45;99996.31;;;23.11;36.29
16100;BME280;8154;50.830;12.082;2022-07-10T06:33:32;100002.28;;;23.13;36.35
16100;BME280;8154;50.830;12.082;2022-07-10T06:36:19;99996.97;;;23.13;36.24
16100;BME280;8154;50.830;12.082;2022-07-10T06:39:03;99993.75;;;23.17;36.41
16100;BME280;8154;50.830;12.082;2022-07-10T06:41:47;99992.72;;;23.18;36.13
16100;BME280;8154;50.830;12.082;2022-07-10T06:44:31;99992.56;;;23.20;36.16
16100;BME280;8154;50.830;12.082;2022-07-10T06:47:18;99990.72;;;23.20;36.30
16100;BME280;8154;50.830;12.082;2022-07-10T06:50:22;99994.56;;;23.18;35.97
16100;BME280;8154;50.830;12.082;2022-07-10T06:53:07;99998.53;;;23.22;35.97
16100;BME280;8154;50.830;12.082;2022-07-10T06:55:51;100000.00;;;23.24;35.81
16100;BME280;8154;50.830;12.082;2022-07-10T06:58:35;99989.19;;;23.26;35.46
16100;BME280;8154;50.830;12.082;2022-07-10T07:01:20;100000.16;;;23.31;35.48
16100;BME280;8154;50.830;12.082;2022-07-10T07:04:04;100003.84;;;23.30;35.40
16100;BME280;8154;50.830;12.082;2022-07-10T07:06:48;99996.94;;;23.35;35.27
16100;BME280;8154;50.830;12.082;2022-07-10T07:09:32;100005.13;;;23.34;35.24
16100;BME280;8154;50.830;12.082;2022-07-10T07:12:16;100006.22;;;23.25;35.38
16100;BME280;8154;50.830;12.082;2022-07-10T07:15:04;100002.19;;;23.21;35.72
16100;BME280;8154;50.830;12.082;2022-07-10T07:17:50;100001.75;;;23.17;35.61
16100;BME280;8154;50.830;12.082;2022-07-10T07:20:55;99992.91;;;23.17;36.03
16100;BME280;8154;50.830;12.082;2022-07-10T07:23:58;99995.75;;;23.15;35.84
16100;BME280;8154;50.830;12.082;2022-07-10T07:26:42;99995.28;;;23.12;36.04
16100;BME280;8154;50.830;12.082;2022-07-10T07:29:26;100005.13;;;23.11;36.05
16100;BME280;8154;50.830;12.082;2022-07-10T07:32:10;100001.56;;;23.19;35.61
16100;BME280;8154;50.830;12.082;2022-07-10T07:34:55;100000.56;;;23.20;35.77
16100;BME280;8154;50.830;12.082;2022-07-10T07:37:46;100003.22;;;23.20;35.73
16100;BME280;8154;50.830;12.082;2022-07-10T07:40:31;100007.84;;;23.26;35.16
16100;BME280;8154;50.830;12.082;2022-07-10T07:43:15;99998.34;;;23.23;35.24
16100;BME280;8154;50.830;12.082;2022-07-10T07:46:00;99999.53;;;23.21;35.53
16100;BME280;8154;50.830;12.082;2022-07-10T07:48:44;100002.56;;;23.18;35.42
16100;BME280;8154;50.830;12.082;2022-07-10T07:51:28;100006.06;;;23.18;35.50
16100;BME280;8154;50.830;12.082;2022-07-10T07:54:12;99998.72;;;23.20;35.47
16100;BME280;8154;50.830;12.082;2022-07-10T07:56:56;99997.03;;;23.19;35.63
16100;BME280;8154;50.830;12.082;2022-07-10T07:59:41;100003.69;;;23.23;35.28
16100;BME280;8154;50.830;12.082;2022-07-10T08:02:25;100003.22;;;23.20;35.43
16100;BME280;8154;50.830;12.082;2022-07-10T08:05:09;100009.94;;;23.16;35.67
16100;BME280;8154;50.830;12.082;2022-07-10T08:07:56;100014.53;;;23.22;35.39
16100;BME280;8154;50.830;12.082;2022-07-10T08:10:40;100020.16;;;23.27;35.63
16100;BME280;8154;50.830;12.082;2022-07-10T08:13:25;100027.53;;;23.25;35.79
16100;BME280;8154;50.830;12.082;2022-07-10T08:16:09;100010.34;;;23.27;35.73
16100;BME280;8154;50.830;12.082;2022-07-10T08:18:53;100008.88;;;23.25;35.95
16100;BME280;8154;50.830;12.082;2022-07-10T08:21:37;100007.72;;;23.19;36.12
16100;BME280;8154;50.830;12.082;2022-07-10T08:24:22;100014.06;;;23.18;36.43
16100;BME280;8154;50.830;12.082;2022-07-10T08:27:06;100023.88;;;23.18;36.51
16100;BME280;8154;50.830;12.082;2022-07-10T08:29:51;100029.03;;;23.19;36.52
16100;BME280;8154;50.830;12.082;2022-07-10T08:32:36;100034.84;;;23.23;36.62
16100;BME280;8154;50.830;12.082;2022-07-10T08:35:21;100040.69;;;23.26;36.64
16100;BME280;8154;50.830;12.082;2022-07-10T08:38:07;100031.34;;;23.22;36.77
16100;BME280;8154;50.830;12.082;2022-07-10T08:40:54;100023.03;;;23.25;36.82
16100;BME280;8154;50.830;12.082;2022-07-10T08:43:41;100032.69;;;23.26;37.01
16100;BME280;8154;50.830;12.082;2022-07-10T08:46:25;100019.38;;;23.26;37.12
16100;BME280;8154;50.830;12.082;2022-07-10T08:49:11;100027.53;;;23.25;37.49
16100;BME280;8154;50.830;12.082;2022-07-10T08:52:05;100029.19;;;23.26;37.43
16100;BME280;8154;50.830;12.082;2022-07-10T08:54:50;100029.19;;;23.26;37.59
16100;BME280;8154;50.830;12.082;2022-07-10T08:57:34;100028.00;;;23.28;37.91
16100;BME280;8154;50.830;12.082;2022-07-10T09:00:19;100017.44;;;23.35;37.67
16100;BME280;8154;50.830;12.082;2022-07-10T09:03:04;100008.63;;;23.34;37.86
16100;BME280;8154;50.830;12.082;2022-07-10T09:05:48;100003.09;;;23.36;37.87
16100;BME280;8154;50.830;12.082;2022-07-10T09:08:35;100008.44;;;23.36;38.02
16100;BME280;8154;50.830;12.082;2022-07-10T09:11:21;100007.78;;;23.34;38.00
16100;BME280;8154;50.830;12.082;2022-07-10T09:14:05;100010.16;;;23.29;37.97
16100;BME280;8154;50.830;12.082;2022-07-10T09:16:51;100012.00;;;23.28;38.17
16100;BME280;8154;50.830;12.082;2022-07-10T09:19:36;100005.00;;;23.27;37.85
16100;BME280;8154;50.830;12.082;2022-07-10T09:22:21;100007.03;;;23.25;38.00
16100;BME280;8154;50.830;12.082;2022-07-10T09:25:12;100001.03;;;23.23;38.16
16100;BME280;8154;50.830;12.082;2022-07-10T09:27:56;100000.69;;;23.26;37.97
16100;BME280;8154;50.830;12.082;2022-07-10T09:30:41;100003.53;;;23.25;38.08
16100;BME280;8154;50.830;12.082;2022-07-10T09:33:27;99995.88;;;23.22;37.83
16100;BME280;8154;50.830;12.082;2022-07-10T09:36:12;100000.06;;;23.16;37.78
16100;BME280;8154;50.830;12.082;2022-07-10T09:38:56;100000.78;;;23.10;37.83
16100;BME280;8154;50.830;12.082;2022-07-10T09:41:41;99994.38;;;23.05;37.83
16100;BME280;8154;50.830;12.082;2022-07-10T09:44:25;99999.34;;;23.08;37.79
16100;BME280;8154;50.830;12.082;2022-07-10T09:47:21;99994.28;;;23.13;37.79
16100;BME280;8154;50.830;12.082;2022-07-10T09:50:39;100004.59;;;23.16;37.66
16100;BME280;8154;50.830;12.082;2022-07-10T09:53:24;99998.44;;;23.15;37.47
16100;BME280;8154;50.830;12.082;2022-07-10T09:56:09;100000.25;;;23.15;37.55
16100;BME280;8154;50.830;12.082;2022-07-10T09:58:59;100000.63;;;23.12;37.68
16100;BME280;8154;50.830;12.082;2022-07-10T10:01:44;100002.28;;;23.13;37.49
16100;BME280;8154;50.830;12.082;2022-07-10T10:04:30;99997.28;;;23.10;37.73
16100;BME280;8154;50.830;12.082;2022-07-10T10:07:18;99992.63;;;23.12;37.74
16100;BME280;8154;50.830;12.082;2022-07-10T10:10:03;99998.97;;;23.11;37.68
16100;BME280;8154;50.830;12.082;2022-07-10T10:12:54;99985.09;;;23.15;37.55
16100;BME280;8154;50.830;12.082;2022-07-10T10:15:42;99995.75;;;23.15;37.33
16100;BME280;8154;50.830;12.082;2022-07-10T10:18:27;99988.13;;;23.12;37.70
16100;BME280;8154;50.830;12.082;2022-07-10T10:21:11;99988.31;;;23.11;37.63
16100;BME280;8154;50.830;12.082;2022-07-10T10:23:56;99980.97;;;23.13;37.64
16100;BME280;8154;50.830;12.082;2022-07-10T10:26:41;99988.59;;;23.16;37.62
16100;BME280;8154;50.830;12.082;2022-07-10T10:29:28;99985.47;;;23.12;37.44
16100;BME280;8154;50.830;12.082;2022-07-10T10:32:13;99981.03;;;23.19;37.12
16100;BME280;8154;50.830;12.082;2022-07-10T10:34:58;99995.28;;;23.12;37.30
16100;BME280;8154;50.830;12.082;2022-07-10T10:37:50;100002.97;;;23.07;37.36
16100;BME280;8154;50.830;12.082;2022-07-10T10:40:35;99994.47;;;23.11;37.10
16100;BME280;8154;50.830;12.082;2022-07-10T10:43:22;99993.75;;;23.17;37.11
16100;BME280;8154;50.830;12.082;2022-07-10T10:46:24;99995.75;;;23.15;37.02
16100;BME280;8154;50.830;12.082;2022-07-10T10:49:12;100000.25;;;23.15;36.94
16100;BME280;8154;50.830;12.082;2022-07-10T10:52:11;100000.25;;;23.15;36.95
16100;BME280;8154;50.830;12.082;2022-07-10T10:55:00;100000.06;;;23.16;36.93
16100;BME280;8154;50.830;12.082;2022-07-10T10:57:46;99993.94;;;23.16;36.75
16100;BME280;8154;50.830;12.082;2022-07-10T11:00:35;99985.47;;;23.12;36.71
16100;BME280;8154;50.830;12.082;2022-07-10T11:03:23;99994.28;;;23.13;36.82
16100;BME280;8154;50.830;12.082;2022-07-10T11:06:12;99987.47;;;23.10;36.64
16100;BME280;8154;50.830;12.082;2022-07-10T11:09:30;99991.25;;;23.16;36.76
16100;BME280;8154;50.830;12.082;2022-07-10T11:12:14;99999.91;;;23.18;36.36
16100;BME280;8154;50.830;12.082;2022-07-10T11:14:59;99993.38;;;23.20;36.02
16100;BME280;8154;50.830;12.082;2022-07-10T11:17:50;99992.88;;;23.25;35.97
16100;BME280;8154;50.830;12.082;2022-07-10T11:20:43;99982.72;;;23.20;35.95
16100;BME280;8154;50.830;12.082;2022-07-10T11:24:10;99981.22;;;23.18;36.08
16100;BME280;8154;50.830;12.082;2022-07-10T11:27:29;99991.53;;;23.21;36.04
16100;BME280;8154;50.830;12.082;2022-07-10T11:30:18;99989.88;;;23.20;35.82
16100;BME280;8154;50.830;12.082;2022-07-10T11:33:05;99986.28;;;23.13;35.93
16100;BME280;8154;50.830;12.082;2022-07-10T11:35:51;99975.09;;;23.17;35.99
16100;BME280;8154;50.830;12.082;2022-07-10T11:38:36;99979.03;;;23.21;35.81
16100;BME280;8154;50.830;12.082;2022-07-10T11:41:22;99970.84;;;23.23;35.86
16100;BME280;8154;50.830;12.082;2022-07-10T11:44:08;99973.34;;;23.24;35.76
16100;BME280;8154;50.830;12.082;2022-07-10T11:46:57;99977.22;;;23.22;35.79
16100;BME280;8154;50.830;12.082;2022-07-10T11:49:45;99968.69;;;23.26;35.06
16100;BME280;8154;50.830;12.082;2022-07-10T11:52:35;99973.22;;;23.18;35.55
16100;BME280;8154;50.830;12.082;2022-07-10T11:55:22;99967.28;;;23.16;35.43
16100;BME280;8154;50.830;12.082;2022-07-10T11:58:17;99963.94;;;23.14;35.33
16100;BME280;8154;50.830;12.082;2022-07-10T12:01:03;99971.56;;;23.17;34.99
16100;BME280;8154;50.830;12.082;2022-07-10T12:04:04;99957.88;;;23.20;34.74
16100;BME280;8154;50.830;12.082;2022-07-10T12:06:50;99965.03;;;23.19;34.50
16100;BME280;8154;50.830;12.082;2022-07-10T12:09:34;99959.91;;;23.18;34.65
16100;BME280;8154;50.830;12.082;2022-07-10T12:12:23;99965.59;;;23.15;34.77
16100;BME280;8154;50.830;12.082;2022-07-10T12:15:07;99949.97;;;23.12;34.60
16100;BME280;8154;50.830;12.082;2022-07-10T12:17:52;99943.63;;;23.13;34.46
16100;BME280;8154;50.830;12.082;2022-07-10T12:20:37;99947.28;;;23.12;34.59
16100;BME280;8154;50.830;12.082;2022-07-10T12:23:21;99943.97;;;23.10;34.85
16100;BME280;8154;50.830;12.082;2022-07-10T12:26:11;99956.19;;;23.04;34.94
16100;BME280;8154;50.830;12.082;2022-07-10T12:28:56;99958.38;;;23.01;34.96
16100;BME280;8154;50.830;12.082;2022-07-10T12:31:41;99953.34;;;23.06;34.88
16100;BME280;8154;50.830;12.082;2022-07-10T12:37:20;99964.84;;;23.06;34.79
16100;BME280;8154;50.830;12.082;2022-07-10T12:40:07;99965.22;;;23.03;34.93
16100;BME280;8154;50.830;12.082;2022-07-10T12:43:05;99960.69;;;23.04;35.15
16100;BME280;8154;50.830;12.082;2022-07-10T12:46:13;99956.56;;;23.01;34.83
16100;BME280;8154;50.830;12.082;2022-07-10T12:49:10;99953.53;;;23.04;34.72
16100;BME280;8154;50.830;12.082;2022-07-10T12:51:56;99949.03;;;23.05;34.57
16100;BME280;8154;50.830;12.082;2022-07-10T12:54:40;99951.41;;;23.00;34.91
16100;BME280;8154;50.830;12.082;2022-07-10T12:57:24;99956.25;;;22.96;34.96
16100;BME280;8154;50.830;12.082;2022-07-10T13:00:09;99964.56;;;23.01;34.64
16100;BME280;8154;50.830;12.082;2022-07-10T13:02:59;99947.91;;;22.99;34.63
16100;BME280;8154;50.830;12.082;2022-07-10T13:05:44;99953.59;;;22.96;34.72
16100;BME280;8154;50.830;12.082;2022-07-10T13:08:28;99956.91;;;22.98;34.33
16100;BME280;8154;50.830;12.082;2022-07-10T13:11:13;99947.53;;;23.02;34.14
16100;BME280;8154;50.830;12.082;2022-07-10T13:14:01;99951.34;;;23.08;33.77
16100;BME280;8154;50.830;12.082;2022-07-10T13:16:46;99943.34;;;23.08;33.82
16100;BME280;8154;50.830;12.082;2022-07-10T13:19:31;99940.19;;;23.04;33.85
16100;BME280;8154;50.830;12.082;2022-07-10T13:22:15;99943.88;;;23.03;34.26
16100;BME280;8154;50.830;12.082;2022-07-10T13:24:59;99944.69;;;23.04;34.08
16100;BME280;8154;50.830;12.082;2022-07-10T13:27:43;99938.06;;;23.00;34.10
16100;BME280;8154;50.830;12.082;2022-07-10T13:30:29;99945.06;;;23.01;33.93
16100;BME280;8154;50.830;12.082;2022-07-10T13:33:13;99946.38;;;23.05;33.95
16100;BME280;8154;50.830;12.082;2022-07-10T13:36:00;99930.75;;;23.02;33.88
16100;BME280;8154;50.830;12.082;2022-07-10T13:38:44;99935.53;;;23.06;33.09
16100;BME280;8154;50.830;12.082;2022-07-10T13:41:31;99936.06;;;23.02;33.65
16100;BME280;8154;50.830;12.082;2022-07-10T13:44:15;99936.06;;;23.02;33.30
16100;BME280;8154;50.830;12.082;2022-07-10T13:47:00;99926.75;;;22.98;33.60
16100;BME280;8154;50.830;12.082;2022-07-10T13:49:44;99926.13;;;22.96;33.08
16100;BME280;8154;50.830;12.082;2022-07-10T13:52:27;99929.41;;;22.98;33.26
16100;BME280;8154;50.830;12.082;2022-07-10T13:55:12;99925.28;;;22.95;33.46
16100;BME280;8154;50.830;12.082;2022-07-10T13:57:56;99927.31;;;22.93;33.46
16100;BME280;8154;50.830;12.082;2022-07-10T14:00:41;99919.97;;;22.95;33.19
16100;BME280;8154;50.830;12.082;2022-07-10T14:03:25;99911.31;;;22.93;33.71
16100;BME280;8154;50.830;12.082;2022-07-10T14:06:10;99914.16;;;22.92;33.60
16100;BME280;8154;50.830;12.082;2022-07-10T14:08:54;99921.78;;;22.95;33.24
16100;BME280;8154;50.830;12.082;2022-07-10T14:11:39;99915.47;;;22.96;33.31
16100;BME280;8154;50.830;12.082;2022-07-10T14:14:24;99926.56;;;22.99;33.03
16100;BME280;8154;50.830;12.082;2022-07-10T14:17:08;99923.47;;;22.96;33.32
16100;BME280;8154;50.830;12.082;2022-07-10T14:19:52;99917.59;;;23.00;33.35
16100;BME280;8154;50.830;12.082;2022-07-10T14:22:37;99918.41;;;23.01;32.93
16100;BME280;8154;50.830;12.082;2022-07-10T14:25:24;99916.94;;;22.98;32.93
16100;BME280;8154;50.830;12.082;2022-07-10T14:28:09;99912.44;;;22.99;32.90
16100;BME280;8154;50.830;12.082;2022-07-10T14:30:53;99916.56;;;23.01;33.02
16100;BME280;8154;50.830;12.082;2022-07-10T14:33:39;99913.25;;;22.99;33.12
16100;BME280;8154;50.830;12.082;2022-07-10T14:36:23;99923.28;;;22.97;32.93
16100;BME280;8154;50.830;12.082;2022-07-10T14:39:11;99913.06;;;23.01;32.96